sensor_id;sensor_type;location;lat;lon;timestamp;pressure;altitude;pressure_sealevel;temperature;humidity
37304;BME280;23188;51.188;16.374;2023-09-18T00:03:03;100147.71;;;18.51;100.00
37304;BME280;23188;51.188;16.374;2023-09-18T00:07:05;100146.64;;;18.54;100.00
37304;BME280;23188;51.188;16.374;2023-09-18T00:15:36;100137.98;;;18.62;100.00
37304;BME280;23188;51.188;16.374;2023-09-18T00:19:38;100134.53;;;18.64;100.00
37304;BME280;23188;51.188;16.374;2023-09-18T00:23:40;100134.04;;;18.64;100.00
37304;BME280;23188;51.188;16.374;2023-09-18T00:27:42;100124.75;;;18.64;100.00
37304;BME280;23188;51.188;16.374;2023-09-18T00:31:44;100127.89;;;18.66;100.00
37304;BME280;23188;51.188;16.374;2023-09-18T00:35:47;100122.38;;;18.66;100.00
37304;BME280;23188;51.188;16.374;2023-09-18T00:44:20;100108.00;;;18.55;100.00
37304;BME280;23188;51.188;16.374;2023-09-18T00:52:29;100112.75;;;18.49;100.00
37304;BME280;23188;51.188;16.374;2023-09-18T00:56:48;100112.67;;;18.45;100.00
37304;BME280;23188;51.188;16.374;2023-09-18T01:00:50;100106.91;;;18.37;100.00
37304;BME280;23188;51.188;16.374;2023-09-18T01:04:52;100094.35;;;18.31;100.00
37304;BME280;23188;51.188;16.374;2023-09-18T01:08:54;100085.89;;;18.20;100.00
37304;BME280;23188;51.188;16.374;2023-09-18T01:12:58;100081.84;;;18.10;100.00
37304;BME280;23188;51.188;16.374;2023-09-18T01:21:57;100072.91;;;17.97;100.00
37304;BME280;23188;51.188;16.374;2023-09-18T01:25:58;100073.20;;;17.90;100.00
37304;BME280;23188;51.188;16.374;2023-09-18T01:30:00;100078.70;;;17.88;100.00
37304;BME280;23188;51.188;16.374;2023-09-18T01:34:02;100076.86;;;17.82;100.00
37304;BME280;23188;51.188;16.374;2023-09-18T01:38:04;100075.77;;;17.74;100.00
37304;BME280;23188;51.188;16.374;2023-09-18T01:42:06;100075.95;;;17.65;100.00
37304;BME280;23188;51.188;16.374;2023-09-18T01:46:10;100065.45;;;17.62;100.00
37304;BME280;23188;51.188;16.374;2023-09-18T01:50:12;100061.55;;;17.59;100.00
37304;BME280;23188;51.188;16.374;2023-09-18T01:54:14;100070.89;;;17.57;100.00
37304;BME280;23188;51.188;16.374;2023-09-18T01:58:16;100067.52;;;17.53;100.00
37304;BME280;23188;51.188;16.374;2023-09-18T02:02:18;100063.88;;;17.56;100.00
37304;BME280;23188;51.188;16.374;2023-09-18T02:06:40;100060.54;;;17.53;100.00
37304;BME280;23188;51.188;16.374;2023-09-18T02:10:44;100056.50;;;17.53;100.00
37304;BME280;23188;51.188;16.374;2023-09-18T02:14:46;100060.29;;;17.42;100.00
37304;BME280;23188;51.188;16.374;2023-09-18T02:18:47;100058.02;;;17.39;100.00
37304;BME280;23188;51.188;16.374;2023-09-18T02:27:59;100049.59;;;17.33;100.00
37304;BME280;23188;51.188;16.374;2023-09-18T02:32:01;100044.55;;;17.36;100.00
37304;BME280;23188;51.188;16.374;2023-09-18T02:36:05;100045.09;;;17.38;100.00
37304;BME280;23188;51.188;16.374;2023-09-18T02:40:06;100040.11;;;17.38;100.00
37304;BME280;23188;51.188;16.374;2023-09-18T02:44:09;100033.77;;;17.32;100.00
37304;BME280;23188;51.188;16.374;2023-09-18T02:48:10;100030.36;;;17.25;100.00
37304;BME280;23188;51.188;16.374;2023-09-18T02:52:12;100031.06;;;17.21;100.00
37304;BME280;23188;51.188;16.374;2023-09-18T03:00:35;100019.45;;;17.24;100.00
37304;BME280;23188;51.188;16.374;2023-09-18T03:04:44;100018.95;;;17.28;100.00
37304;BME280;23188;51.188;16.374;2023-09-18T03:08:47;100023.81;;;17.25;100.00
37304;BME280;23188;51.188;16.374;2023-09-18T03:12:49;100019.18;;;17.20;100.00
37304;BME280;23188;51.188;16.374;2023-09-18T03:16:54;100012.86;;;17.19;100.00
37304;BME280;23188;51.188;16.374;2023-09-18T03:20:56;100010.01;;;17.19;100.00
37304;BME280;23188;51.188;16.374;2023-09-18T03:25:01;100005.29;;;17.22;100.00
37304;BME280;23188;51.188;16.374;2023-09-18T03:29:03;100001.07;;;17.24;100.00
37304;BME280;23188;51.188;16.374;2023-09-18T03:33:11;99994.38;;;17.25;100.00
37304;BME280;23188;51.188;16.374;2023-09-18T03:37:13;99993.95;;;17.22;100.00
37304;BME280;23188;51.188;16.374;2023-09-18T03:41:15;99992.83;;;17.22;100.00
37304;BME280;23188;51.188;16.374;2023-09-18T03:45:16;99986.34;;;17.16;100.00
37304;BME280;23188;51.188;16.374;2023-09-18T03:49:20;99983.98;;;17.16;100.00
37304;BME280;23188;51.188;16.374;2023-09-18T03:53:21;99985.63;;;17.12;100.00
37304;BME280;23188;51.188;16.374;2023-09-18T03:57:25;99979.80;;;17.15;100.00
37304;BME280;23188;51.188;16.374;2023-09-18T04:01:27;99981.83;;;17.18;100.00
37304;BME280;23188;51.188;16.374;2023-09-18T04:05:29;99977.59;;;17.20;100.00
37304;BME280;23188;51.188;16.374;2023-09-18T04:09:30;99979.90;;;17.19;100.00
37304;BME280;23188;51.188;16.374;2023-09-18T04:13:32;99964.80;;;17.16;100.00
37304;BME280;23188;51.188;16.374;2023-09-18T04:17:35;99961.83;;;17.15;100.00
37304;BME280;23188;51.188;16.374;2023-09-18T04:21:37;99962.96;;;17.15;100.00
37304;BME280;23188;51.188;16.374;2023-09-18T04:25:39;99955.64;;;17.15;100.00
37304;BME280;23188;51.188;16.374;2023-09-18T04:29:41;99950.82;;;17.13;100.00
37304;BME280;23188;51.188;16.374;2023-09-18T04:33:42;99950.99;;;17.16;100.00
37304;BME280;23188;51.188;16.374;2023-09-18T04:37:44;99945.38;;;17.18;100.00
37304;BME280;23188;51.188;16.374;2023-09-18T04:41:46;99939.40;;;17.19;100.00
37304;BME280;23188;51.188;16.374;2023-09-18T04:50:17;99940.37;;;17.20;100.00
37304;BME280;23188;51.188;16.374;2023-09-18T04:54:20;99936.05;;;17.26;100.00
37304;BME280;23188;51.188;16.374;2023-09-18T05:02:50;99922.92;;;17.99;100.00
37304;BME280;23188;51.188;16.374;2023-09-18T05:06:52;99920.30;;;18.24;100.00
37304;BME280;23188;51.188;16.374;2023-09-18T05:11:00;99923.58;;;18.54;100.00
37304;BME280;23188;51.188;16.374;2023-09-18T05:15:02;99917.36;;;18.76;100.00
37304;BME280;23188;51.188;16.374;2023-09-18T05:19:05;99923.23;;;19.07;100.00
37304;BME280;23188;51.188;16.374;2023-09-18T05:23:08;99926.17;;;19.37;100.00
37304;BME280;23188;51.188;16.374;2023-09-18T05:27:09;99924.31;;;19.60;100.00
37304;BME280;23188;51.188;16.374;2023-09-18T05:31:11;99921.14;;;19.78;100.00
37304;BME280;23188;51.188;16.374;2023-09-18T05:35:13;99912.46;;;19.93;100.00
37304;BME280;23188;51.188;16.374;2023-09-18T05:39:16;99906.58;;;19.99;100.00
37304;BME280;23188;51.188;16.374;2023-09-18T05:43:18;99903.42;;;20.11;100.00
37304;BME280;23188;51.188;16.374;2023-09-18T05:47:20;99906.98;;;20.31;100.00
37304;BME280;23188;51.188;16.374;2023-09-18T05:51:22;99899.48;;;20.60;100.00
37304;BME280;23188;51.188;16.374;2023-09-18T05:55:24;99897.30;;;20.85;100.00
37304;BME280;23188;51.188;16.374;2023-09-18T05:59:25;99891.31;;;21.01;100.00
37304;BME280;23188;51.188;16.374;2023-09-18T06:03:27;99893.54;;;21.21;100.00
37304;BME280;23188;51.188;16.374;2023-09-18T06:07:32;99890.17;;;21.37;100.00
37304;BME280;23188;51.188;16.374;2023-09-18T06:11:33;99887.84;;;21.52;100.00
37304;BME280;23188;51.188;16.374;2023-09-18T06:15:35;99885.45;;;21.65;100.00
37304;BME280;23188;51.188;16.374;2023-09-18T06:19:37;99876.63;;;21.76;100.00
37304;BME280;23188;51.188;16.374;2023-09-18T06:23:39;99874.66;;;21.88;100.00
37304;BME280;23188;51.188;16.374;2023-09-18T06:27:41;99872.94;;;21.99;100.00
37304;BME280;23188;51.188;16.374;2023-09-18T06:31:43;99873.64;;;22.15;100.00
37304;BME280;23188;51.188;16.374;2023-09-18T06:35:44;99869.08;;;22.38;100.00
37304;BME280;23188;51.188;16.374;2023-09-18T06:39:46;99869.05;;;22.61;100.00
37304;BME280;23188;51.188;16.374;2023-09-18T06:43:48;99867.32;;;22.75;100.00
37304;BME280;23188;51.188;16.374;2023-09-18T06:47:49;99868.37;;;22.80;100.00
37304;BME280;23188;51.188;16.374;2023-09-18T06:51:51;99866.52;;;22.96;99.96
37304;BME280;23188;51.188;16.374;2023-09-18T06:55:54;99863.90;;;23.02;100.00
37304;BME280;23188;51.188;16.374;2023-09-18T06:59:56;99863.73;;;23.02;100.00
37304;BME280;23188;51.188;16.374;2023-09-18T07:03:57;99864.63;;;23.12;100.00
37304;BME280;23188;51.188;16.374;2023-09-18T07:08:01;99859.60;;;23.30;99.52
37304;BME280;23188;51.188;16.374;2023-09-18T07:16:20;99857.69;;;23.46;98.92
37304;BME280;23188;51.188;16.374;2023-09-18T07:20:22;99860.75;;;23.59;98.79
37304;BME280;23188;51.188;16.374;2023-09-18T07:24:25;99857.52;;;23.75;96.63
37304;BME280;23188;51.188;16.374;2023-09-18T07:28:27;99848.63;;;23.86;98.24
37304;BME280;23188;51.188;16.374;2023-09-18T07:32:28;99843.45;;;24.20;97.37
37304;BME280;23188;51.188;16.374;2023-09-18T07:36:39;99834.36;;;24.49;95.61
37304;BME280;23188;51.188;16.374;2023-09-18T07:40:41;99824.42;;;24.69;93.40
37304;BME280;23188;51.188;16.374;2023-09-18T07:44:42;99821.50;;;24.85;92.92
37304;BME280;23188;51.188;16.374;2023-09-18T07:48:44;99816.48;;;25.04;92.16
37304;BME280;23188;51.188;16.374;2023-09-18T07:52:45;99821.89;;;25.09;92.07
37304;BME280;23188;51.188;16.374;2023-09-18T07:56:47;99813.20;;;25.10;91.32
37304;BME280;23188;51.188;16.374;2023-09-18T08:00:49;99810.20;;;25.07;90.91
37304;BME280;23188;51.188;16.374;2023-09-18T08:04:55;99812.31;;;25.22;92.14
37304;BME280;23188;51.188;16.374;2023-09-18T08:09:05;99809.48;;;25.41;90.99
37304;BME280;23188;51.188;16.374;2023-09-18T08:13:07;99798.69;;;25.63;89.60
37304;BME280;23188;51.188;16.374;2023-09-18T08:17:08;99788.73;;;25.87;88.52
37304;BME280;23188;51.188;16.374;2023-09-18T08:21:11;99783.36;;;26.08;87.97
37304;BME280;23188;51.188;16.374;2023-09-18T08:25:15;99775.23;;;26.31;87.89
37304;BME280;23188;51.188;16.374;2023-09-18T08:29:17;99775.48;;;26.39;82.13
37304;BME280;23188;51.188;16.374;2023-09-18T08:33:20;99776.91;;;26.43;81.85
37304;BME280;23188;51.188;16.374;2023-09-18T08:37:26;99772.63;;;26.58;80.20
37304;BME280;23188;51.188;16.374;2023-09-18T08:41:28;99768.37;;;26.74;80.94
37304;BME280;23188;51.188;16.374;2023-09-18T08:49:43;99764.82;;;27.23;79.12
37304;BME280;23188;51.188;16.374;2023-09-18T08:53:46;99756.03;;;27.23;77.76
37304;BME280;23188;51.188;16.374;2023-09-18T08:57:48;99752.09;;;27.22;76.83
37304;BME280;23188;51.188;16.374;2023-09-18T09:01:50;99745.52;;;27.27;76.06
37304;BME280;23188;51.188;16.374;2023-09-18T09:05:51;99741.77;;;27.47;78.30
37304;BME280;23188;51.188;16.374;2023-09-18T09:09:53;99741.54;;;27.53;74.52
37304;BME280;23188;51.188;16.374;2023-09-18T09:18:23;99731.05;;;27.62;76.73
37304;BME280;23188;51.188;16.374;2023-09-18T09:22:25;99721.88;;;27.74;75.66
37304;BME280;23188;51.188;16.374;2023-09-18T09:26:27;99714.17;;;27.88;73.56
37304;BME280;23188;51.188;16.374;2023-09-18T09:30:29;99705.73;;;27.96;73.04
37304;BME280;23188;51.188;16.374;2023-09-18T09:34:31;99701.56;;;28.09;73.69
37304;BME280;23188;51.188;16.374;2023-09-18T09:38:33;99694.86;;;28.26;73.46
37304;BME280;23188;51.188;16.374;2023-09-18T09:42:39;99693.80;;;28.41;72.58
37304;BME280;23188;51.188;16.374;2023-09-18T09:46:45;99693.02;;;28.45;69.67
37304;BME280;23188;51.188;16.374;2023-09-18T09:50:48;99688.25;;;28.62;68.86
37304;BME280;23188;51.188;16.374;2023-09-18T09:54:49;99696.02;;;28.71;68.07
37304;BME280;23188;51.188;16.374;2023-09-18T09:59:04;99692.46;;;28.82;70.95
37304;BME280;23188;51.188;16.374;2023-09-18T10:03:10;99689.95;;;28.94;69.55
37304;BME280;23188;51.188;16.374;2023-09-18T10:07:12;99687.91;;;29.04;69.62
37304;BME280;23188;51.188;16.374;2023-09-18T10:11:14;99685.85;;;29.07;65.94
37304;BME280;23188;51.188;16.374;2023-09-18T10:15:17;99686.30;;;28.98;67.42
37304;BME280;23188;51.188;16.374;2023-09-18T10:23:31;99686.84;;;29.06;67.89
37304;BME280;23188;51.188;16.374;2023-09-18T10:27:36;99675.61;;;29.12;66.21
37304;BME280;23188;51.188;16.374;2023-09-18T10:31:40;99667.41;;;29.16;64.10
37304;BME280;23188;51.188;16.374;2023-09-18T10:35:45;99669.04;;;29.13;66.31
37304;BME280;23188;51.188;16.374;2023-09-18T10:39:49;99661.14;;;29.21;64.24
37304;BME280;23188;51.188;16.374;2023-09-18T10:43:52;99659.15;;;29.17;66.67
37304;BME280;23188;51.188;16.374;2023-09-18T10:47:54;99655.54;;;29.18;65.13
37304;BME280;23188;51.188;16.374;2023-09-18T10:51:57;99646.92;;;29.24;65.21
37304;BME280;23188;51.188;16.374;2023-09-18T10:56:01;99646.53;;;29.34;66.52
37304;BME280;23188;51.188;16.374;2023-09-18T11:00:02;99644.70;;;29.48;65.80
37304;BME280;23188;51.188;16.374;2023-09-18T11:04:20;99637.34;;;29.60;64.70
37304;BME280;23188;51.188;16.374;2023-09-18T11:08:32;99630.39;;;29.78;66.44
37304;BME280;23188;51.188;16.374;2023-09-18T11:12:43;99620.55;;;29.89;64.21
37304;BME280;23188;51.188;16.374;2023-09-18T11:16:45;99612.02;;;30.02;63.61
37304;BME280;23188;51.188;16.374;2023-09-18T11:25:29;99595.03;;;29.99;62.56
37304;BME280;23188;51.188;16.374;2023-09-18T11:29:36;99593.38;;;29.97;61.53
37304;BME280;23188;51.188;16.374;2023-09-18T11:33:38;99590.08;;;30.00;60.55
37304;BME280;23188;51.188;16.374;2023-09-18T11:37:43;99586.20;;;30.02;61.46
37304;BME280;23188;51.188;16.374;2023-09-18T11:41:44;99587.70;;;30.06;62.72
37304;BME280;23188;51.188;16.374;2023-09-18T11:45:55;99581.23;;;30.09;61.90
37304;BME280;23188;51.188;16.374;2023-09-18T11:49:57;99575.09;;;30.15;61.62
37304;BME280;23188;51.188;16.374;2023-09-18T11:54:16;99570.75;;;30.16;60.05
37304;BME280;23188;51.188;16.374;2023-09-18T11:58:18;99564.73;;;30.25;62.35
37304;BME280;23188;51.188;16.374;2023-09-18T12:02:24;99564.27;;;30.32;62.36
37304;BME280;23188;51.188;16.374;2023-09-18T12:06:29;99561.14;;;30.40;60.71
37304;BME280;23188;51.188;16.374;2023-09-18T12:10:31;99558.66;;;30.45;60.32
37304;BME280;23188;51.188;16.374;2023-09-18T12:14:33;99556.91;;;30.49;60.86
37304;BME280;23188;51.188;16.374;2023-09-18T12:18:35;99555.65;;;30.45;59.38
37304;BME280;23188;51.188;16.374;2023-09-18T12:22:39;99546.71;;;30.31;61.52
37304;BME280;23188;51.188;16.374;2023-09-18T12:26:40;99540.91;;;30.30;61.08
37304;BME280;23188;51.188;16.374;2023-09-18T12:30:43;99540.58;;;30.31;61.52
37304;BME280;23188;51.188;16.374;2023-09-18T12:34:45;99535.10;;;30.23;62.14
37304;BME280;23188;51.188;16.374;2023-09-18T12:38:57;99543.77;;;30.20;63.90
37304;BME280;23188;51.188;16.374;2023-09-18T12:42:59;99537.83;;;30.00;62.97
37304;BME280;23188;51.188;16.374;2023-09-18T12:47:01;99537.83;;;29.95;64.16
37304;BME280;23188;51.188;16.374;2023-09-18T12:51:17;99532.77;;;29.92;64.70
37304;BME280;23188;51.188;16.374;2023-09-18T12:55:24;99529.70;;;29.83;65.70
37304;BME280;23188;51.188;16.374;2023-09-18T12:59:30;99523.68;;;29.88;66.65
37304;BME280;23188;51.188;16.374;2023-09-18T13:03:32;99526.14;;;29.88;66.23
37304;BME280;23188;51.188;16.374;2023-09-18T13:07:43;99527.06;;;29.83;66.96
37304;BME280;23188;51.188;16.374;2023-09-18T13:11:57;99524.58;;;29.61;67.43
37304;BME280;23188;51.188;16.374;2023-09-18T13:15:59;99523.86;;;29.55;68.24
37304;BME280;23188;51.188;16.374;2023-09-18T13:20:06;99518.05;;;29.58;66.66
37304;BME280;23188;51.188;16.374;2023-09-18T13:24:31;99523.10;;;29.66;66.92
37304;BME280;23188;51.188;16.374;2023-09-18T13:28:34;99525.36;;;29.71;67.22
37304;BME280;23188;51.188;16.374;2023-09-18T13:32:38;99513.36;;;29.66;67.94
37304;BME280;23188;51.188;16.374;2023-09-18T13:36:42;99509.78;;;29.59;68.46
37304;BME280;23188;51.188;16.374;2023-09-18T13:40:44;99505.27;;;29.47;68.58
37304;BME280;23188;51.188;16.374;2023-09-18T13:44:46;99505.55;;;29.49;69.17
37304;BME280;23188;51.188;16.374;2023-09-18T13:48:52;99504.18;;;29.57;70.26
37304;BME280;23188;51.188;16.374;2023-09-18T13:52:54;99495.22;;;29.69;70.20
37304;BME280;23188;51.188;16.374;2023-09-18T13:56:58;99490.40;;;29.77;69.72
37304;BME280;23188;51.188;16.374;2023-09-18T14:01:00;99484.58;;;29.82;69.16
37304;BME280;23188;51.188;16.374;2023-09-18T14:05:02;99480.31;;;29.78;68.36
37304;BME280;23188;51.188;16.374;2023-09-18T14:09:07;99480.70;;;29.80;67.35
37304;BME280;23188;51.188;16.374;2023-09-18T14:13:08;99470.56;;;29.79;67.23
37304;BME280;23188;51.188;16.374;2023-09-18T14:17:10;99464.91;;;29.77;68.11
37304;BME280;23188;51.188;16.374;2023-09-18T14:21:14;99464.41;;;29.75;69.03
37304;BME280;23188;51.188;16.374;2023-09-18T14:25:16;99457.46;;;29.76;69.07
37304;BME280;23188;51.188;16.374;2023-09-18T14:29:18;99450.66;;;29.70;67.86
37304;BME280;23188;51.188;16.374;2023-09-18T14:33:23;99452.20;;;29.74;70.07
37304;BME280;23188;51.188;16.374;2023-09-18T14:37:24;99449.63;;;29.73;69.36
37304;BME280;23188;51.188;16.374;2023-09-18T14:41:27;99443.83;;;29.69;68.30
37304;BME280;23188;51.188;16.374;2023-09-18T14:45:28;99443.92;;;29.60;68.51
37304;BME280;23188;51.188;16.374;2023-09-18T14:49:30;99446.87;;;29.49;69.08
37304;BME280;23188;51.188;16.374;2023-09-18T14:53:31;99442.17;;;29.38;69.17
37304;BME280;23188;51.188;16.374;2023-09-18T15:02:05;99440.20;;;29.12;69.66
37304;BME280;23188;51.188;16.374;2023-09-18T15:06:19;99441.67;;;29.09;68.74
37304;BME280;23188;51.188;16.374;2023-09-18T15:10:20;99438.88;;;29.03;69.93
37304;BME280;23188;51.188;16.374;2023-09-18T15:14:22;99444.63;;;28.87;71.69
37304;BME280;23188;51.188;16.374;2023-09-18T15:18:25;99439.43;;;28.69;73.14
37304;BME280;23188;51.188;16.374;2023-09-18T15:22:26;99437.76;;;28.48;73.66
37304;BME280;23188;51.188;16.374;2023-09-18T15:26:28;99437.69;;;28.25;74.76
37304;BME280;23188;51.188;16.374;2023-09-18T15:30:35;99433.84;;;28.08;75.67
37304;BME280;23188;51.188;16.374;2023-09-18T15:34:36;99434.23;;;27.88;76.88
37304;BME280;23188;51.188;16.374;2023-09-18T15:38:38;99433.21;;;27.74;77.19
37304;BME280;23188;51.188;16.374;2023-09-18T15:42:39;99431.89;;;27.54;78.58
37304;BME280;23188;51.188;16.374;2023-09-18T15:46:41;99430.72;;;27.41;79.80
37304;BME280;23188;51.188;16.374;2023-09-18T15:50:44;99425.92;;;27.25;80.87
37304;BME280;23188;51.188;16.374;2023-09-18T15:54:45;99424.77;;;27.14;81.73
37304;BME280;23188;51.188;16.374;2023-09-18T15:58:47;99419.77;;;27.06;82.07
37304;BME280;23188;51.188;16.374;2023-09-18T16:08:00;99414.24;;;26.89;82.24
37304;BME280;23188;51.188;16.374;2023-09-18T16:21:00;99422.60;;;26.69;84.95
37304;BME280;23188;51.188;16.374;2023-09-18T16:29:29;99427.79;;;26.55;85.15
37304;BME280;23188;51.188;16.374;2023-09-18T16:37:51;99424.17;;;26.38;84.65
37304;BME280;23188;51.188;16.374;2023-09-18T16:41:53;99423.77;;;26.35;84.12
37304;BME280;23188;51.188;16.374;2023-09-18T16:46:02;99423.00;;;26.27;83.97
37304;BME280;23188;51.188;16.374;2023-09-18T16:50:42;99421.11;;;26.15;84.20
37304;BME280;23188;51.188;16.374;2023-09-18T16:59:18;99417.36;;;25.91;84.32
37304;BME280;23188;51.188;16.374;2023-09-18T17:03:21;99415.58;;;25.81;84.76
37304;BME280;23188;51.188;16.374;2023-09-18T17:07:23;99416.09;;;25.68;85.05
37304;BME280;23188;51.188;16.374;2023-09-18T17:11:25;99416.02;;;25.57;85.93
37304;BME280;23188;51.188;16.374;2023-09-18T17:15:26;99411.98;;;25.48;86.12
37304;BME280;23188;51.188;16.374;2023-09-18T17:19:28;99413.17;;;25.36;87.22
37304;BME280;23188;51.188;16.374;2023-09-18T17:23:29;99415.54;;;25.24;87.06
37304;BME280;23188;51.188;16.374;2023-09-18T17:27:31;99416.48;;;25.17;87.26
37304;BME280;23188;51.188;16.374;2023-09-18T17:31:36;99417.28;;;25.16;87.11
37304;BME280;23188;51.188;16.374;2023-09-18T17:35:38;99411.46;;;25.16;86.52
37304;BME280;23188;51.188;16.374;2023-09-18T17:39:42;99414.30;;;25.16;84.86
37304;BME280;23188;51.188;16.374;2023-09-18T17:43:44;99420.09;;;25.02;84.66
37304;BME280;23188;51.188;16.374;2023-09-18T17:52:45;99421.06;;;24.70;89.87
37304;BME280;23188;51.188;16.374;2023-09-18T17:56:47;99416.69;;;24.66;89.31
37304;BME280;23188;51.188;16.374;2023-09-18T18:00:52;99412.03;;;24.65;89.50
37304;BME280;23188;51.188;16.374;2023-09-18T18:04:53;99407.89;;;24.53;90.54
37304;BME280;23188;51.188;16.374;2023-09-18T18:08:55;99408.40;;;24.44;90.82
37304;BME280;23188;51.188;16.374;2023-09-18T18:12:57;99407.79;;;24.35;91.44
37304;BME280;23188;51.188;16.374;2023-09-18T18:16:59;99401.90;;;24.17;93.22
37304;BME280;23188;51.188;16.374;2023-09-18T18:21:03;99397.97;;;24.05;93.68
37304;BME280;23188;51.188;16.374;2023-09-18T18:25:05;99401.73;;;23.93;94.34
37304;BME280;23188;51.188;16.374;2023-09-18T18:29:07;99407.79;;;23.87;94.51
37304;BME280;23188;51.188;16.374;2023-09-18T18:33:09;99408.58;;;23.78;95.27
37304;BME280;23188;51.188;16.374;2023-09-18T18:37:11;99400.55;;;23.69;95.82
37304;BME280;23188;51.188;16.374;2023-09-18T18:41:12;99402.60;;;23.64;96.26
37304;BME280;23188;51.188;16.374;2023-09-18T18:45:14;99406.92;;;23.61;96.31
37304;BME280;23188;51.188;16.374;2023-09-18T18:49:18;99409.89;;;23.60;96.44
37304;BME280;23188;51.188;16.374;2023-09-18T18:53:21;99419.99;;;23.54;97.19
37304;BME280;23188;51.188;16.374;2023-09-18T19:01:57;99443.05;;;23.39;95.67
37304;BME280;23188;51.188;16.374;2023-09-18T19:06:06;99441.33;;;23.35;96.29
37304;BME280;23188;51.188;16.374;2023-09-18T19:10:08;99433.45;;;23.29;96.18
37304;BME280;23188;51.188;16.374;2023-09-18T19:14:11;99427.49;;;23.23;96.81
37304;BME280;23188;51.188;16.374;2023-09-18T19:22:48;99424.33;;;23.09;96.76
37304;BME280;23188;51.188;16.374;2023-09-18T19:26:49;99423.30;;;23.01;98.33
37304;BME280;23188;51.188;16.374;2023-09-18T19:35:22;99420.52;;;22.90;100.00
37304;BME280;23188;51.188;16.374;2023-09-18T19:39:23;99424.40;;;22.95;100.00
37304;BME280;23188;51.188;16.374;2023-09-18T19:43:25;99422.41;;;23.02;100.00
37304;BME280;23188;51.188;16.374;2023-09-18T19:47:26;99415.23;;;23.04;100.00
37304;BME280;23188;51.188;16.374;2023-09-18T19:51:29;99413.36;;;23.06;100.00
37304;BME280;23188;51.188;16.374;2023-09-18T19:55:34;99413.80;;;23.11;100.00
37304;BME280;23188;51.188;16.374;2023-09-18T19:59:36;99410.36;;;23.18;100.00
37304;BME280;23188;51.188;16.374;2023-09-18T20:03:38;99408.37;;;23.28;100.00
37304;BME280;23188;51.188;16.374;2023-09-18T20:07:41;99403.08;;;23.39;99.98
37304;BME280;23188;51.188;16.374;2023-09-18T20:11:42;99404.29;;;23.49;99.47
37304;BME280;23188;51.188;16.374;2023-09-18T20:15:44;99406.02;;;23.60;99.00
37304;BME280;23188;51.188;16.374;2023-09-18T20:19:46;99408.70;;;23.69;98.36
37304;BME280;23188;51.188;16.374;2023-09-18T20:28:16;99440.02;;;23.80;98.72
37304;BME280;23188;51.188;16.374;2023-09-18T20:32:19;99443.70;;;23.85;98.73
37304;BME280;23188;51.188;16.374;2023-09-18T20:36:21;99446.38;;;23.69;100.00
37304;BME280;23188;51.188;16.374;2023-09-18T20:40:24;99443.36;;;23.73;99.89
37304;BME280;23188;51.188;16.374;2023-09-18T20:44:26;99450.30;;;23.77;99.72
37304;BME280;23188;51.188;16.374;2023-09-18T20:48:27;99458.24;;;23.84;98.93
37304;BME280;23188;51.188;16.374;2023-09-18T20:57:04;99470.82;;;23.72;96.70
37304;BME280;23188;51.188;16.374;2023-09-18T21:01:06;99477.89;;;23.41;97.22
37304;BME280;23188;51.188;16.374;2023-09-18T21:05:08;99478.13;;;23.09;97.09
37304;BME280;23188;51.188;16.374;2023-09-18T21:09:17;99487.59;;;22.54;100.00
37304;BME280;23188;51.188;16.374;2023-09-18T21:13:19;99504.65;;;22.19;100.00
37304;BME280;23188;51.188;16.374;2023-09-18T21:17:20;99521.38;;;21.84;100.00
37304;BME280;23188;51.188;16.374;2023-09-18T21:21:22;99522.25;;;21.45;100.00
37304;BME280;23188;51.188;16.374;2023-09-18T21:25:23;99523.70;;;21.07;100.00
37304;BME280;23188;51.188;16.374;2023-09-18T21:29:25;99517.08;;;20.83;100.00
37304;BME280;23188;51.188;16.374;2023-09-18T21:33:29;99503.44;;;20.59;100.00
37304;BME280;23188;51.188;16.374;2023-09-18T21:37:31;99495.81;;;20.55;100.00
37304;BME280;23188;51.188;16.374;2023-09-18T21:41:32;99487.79;;;20.46;100.00
37304;BME280;23188;51.188;16.374;2023-09-18T21:45:35;99482.38;;;20.29;100.00
37304;BME280;23188;51.188;16.374;2023-09-18T21:49:43;99475.16;;;20.25;100.00
37304;BME280;23188;51.188;16.374;2023-09-18T21:53:45;99477.36;;;20.20;100.00
37304;BME280;23188;51.188;16.374;2023-09-18T21:57:50;99476.70;;;20.06;100.00
37304;BME280;23188;51.188;16.374;2023-09-18T22:01:51;99484.84;;;19.98;100.00
37304;BME280;23188;51.188;16.374;2023-09-18T22:05:56;99488.98;;;19.88;100.00
37304;BME280;23188;51.188;16.374;2023-09-18T22:09:58;99482.48;;;19.80;100.00
37304;BME280;23188;51.188;16.374;2023-09-18T22:14:10;99488.86;;;19.75;100.00
37304;BME280;23188;51.188;16.374;2023-09-18T22:18:13;99496.84;;;19.78;100.00
37304;BME280;23188;51.188;16.374;2023-09-18T22:22:15;99484.89;;;19.75;100.00
37304;BME280;23188;51.188;16.374;2023-09-18T22:26:17;99478.85;;;19.69;100.00
37304;BME280;23188;51.188;16.374;2023-09-18T22:30:18;99488.05;;;19.61;100.00
37304;BME280;23188;51.188;16.374;2023-09-18T22:34:22;99489.45;;;19.68;100.00
37304;BME280;23188;51.188;16.374;2023-09-18T22:55:48;99497.33;;;19.77;100.00
37304;BME280;23188;51.188;16.374;2023-09-18T22:59:52;99502.34;;;19.89;100.00
37304;BME280;23188;51.188;16.374;2023-09-18T23:03:54;99497.66;;;19.92;100.00
37304;BME280;23188;51.188;16.374;2023-09-18T23:07:56;99493.77;;;19.83;100.00
37304;BME280;23188;51.188;16.374;2023-09-18T23:40:46;99499.80;;;20.07;100.00
37304;BME280;23188;51.188;16.374;2023-09-18T23:44:50;99493.89;;;20.15;100.00
37304;BME280;23188;51.188;16.374;2023-09-18T23:48:52;99495.71;;;20.24;100.00